sensor_id;sensor_type;location;lat;lon;timestamp;P1;durP1;ratioP1;P2;durP2;ratioP2
74233;SDS011;62591;55.764;37.718;2022-09-09T00:00:13;3.55;;;1.65;;
74233;SDS011;62591;55.764;37.718;2022-09-09T00:02:44;4.43;;;1.70;;
74233;SDS011;62591;55.764;37.718;2022-09-09T00:05:24;5.30;;;1.73;;
74233;SDS011;62591;55.764;37.718;2022-09-09T00:07:58;4.50;;;1.65;;
74233;SDS011;62591;55.764;37.718;2022-09-09T00:10:31;2.75;;;1.90;;
74233;SDS011;62591;55.764;37.718;2022-09-09T00:13:08;3.83;;;1.33;;
74233;SDS011;62591;55.764;37.718;2022-09-09T00:15:47;3.75;;;1.52;;
74233;SDS011;62591;55.764;37.718;2022-09-09T00:18:26;2.90;;;1.48;;
74233;SDS011;62591;55.764;37.718;2022-09-09T00:21:02;3.72;;;1.65;;
74233;SDS011;62591;55.764;37.718;2022-09-09T00:26:08;5.68;;;1.98;;
74233;SDS011;62591;55.764;37.718;2022-09-09T00:28:45;2.78;;;1.50;;
74233;SDS011;62591;55.764;37.718;2022-09-09T00:31:20;5.03;;;1.75;;
74233;SDS011;62591;55.764;37.718;2022-09-09T00:33:53;3.45;;;1.63;;
74233;SDS011;62591;55.764;37.718;2022-09-09T00:36:23;4.50;;;1.90;;
74233;SDS011;62591;55.764;37.718;2022-09-09T00:38:57;3.70;;;1.80;;
74233;SDS011;62591;55.764;37.718;2022-09-09T00:41:31;2.60;;;1.52;;
74233;SDS011;62591;55.764;37.718;2022-09-09T00:44:17;5.13;;;1.88;;
74233;SDS011;62591;55.764;37.718;2022-09-09T00:49:50;4.45;;;1.60;;
74233;SDS011;62591;55.764;37.718;2022-09-09T00:52:36;2.90;;;1.70;;
74233;SDS011;62591;55.764;37.718;2022-09-09T00:55:19;4.80;;;1.85;;
74233;SDS011;62591;55.764;37.718;2022-09-09T00:57:59;3.80;;;1.90;;
74233;SDS011;62591;55.764;37.718;2022-09-09T01:00:30;3.15;;;2.00;;
74233;SDS011;62591;55.764;37.718;2022-09-09T01:03:18;5.65;;;2.10;;
74233;SDS011;62591;55.764;37.718;2022-09-09T01:05:55;5.90;;;2.03;;
74233;SDS011;62591;55.764;37.718;2022-09-09T01:08:38;5.00;;;2.28;;
74233;SDS011;62591;55.764;37.718;2022-09-09T01:11:32;5.45;;;2.03;;
74233;SDS011;62591;55.764;37.718;2022-09-09T01:14:10;5.32;;;2.17;;
74233;SDS011;62591;55.764;37.718;2022-09-09T01:16:50;3.80;;;2.08;;
74233;SDS011;62591;55.764;37.718;2022-09-09T01:19:27;6.78;;;2.40;;
74233;SDS011;62591;55.764;37.718;2022-09-09T01:22:10;3.40;;;2.08;;
74233;SDS011;62591;55.764;37.718;2022-09-09T01:24:53;4.05;;;2.33;;
74233;SDS011;62591;55.764;37.718;2022-09-09T01:28:03;3.70;;;2.10;;
74233;SDS011;62591;55.764;37.718;2022-09-09T01:30:40;4.47;;;2.53;;
74233;SDS011;62591;55.764;37.718;2022-09-09T01:33:13;3.85;;;2.22;;
74233;SDS011;62591;55.764;37.718;2022-09-09T01:35:45;4.07;;;2.33;;
74233;SDS011;62591;55.764;37.718;2022-09-09T01:38:20;4.78;;;2.40;;
74233;SDS011;62591;55.764;37.718;2022-09-09T01:40:51;9.13;;;2.30;;
74233;SDS011;62591;55.764;37.718;2022-09-09T01:43:27;4.45;;;2.72;;
74233;SDS011;62591;55.764;37.718;2022-09-09T01:45:58;5.63;;;2.70;;
74233;SDS011;62591;55.764;37.718;2022-09-09T01:48:30;5.03;;;2.60;;
74233;SDS011;62591;55.764;37.718;2022-09-09T01:51:07;4.90;;;2.35;;
74233;SDS011;62591;55.764;37.718;2022-09-09T01:53:38;3.33;;;2.15;;
74233;SDS011;62591;55.764;37.718;2022-09-09T01:56:12;3.95;;;2.67;;
74233;SDS011;62591;55.764;37.718;2022-09-09T01:59:02;3.95;;;2.58;;
74233;SDS011;62591;55.764;37.718;2022-09-09T02:01:42;6.15;;;3.00;;
74233;SDS011;62591;55.764;37.718;2022-09-09T02:04:27;4.18;;;2.33;;
74233;SDS011;62591;55.764;37.718;2022-09-09T02:07:13;5.68;;;2.35;;
74233;SDS011;62591;55.764;37.718;2022-09-09T02:09:52;4.10;;;2.35;;
74233;SDS011;62591;55.764;37.718;2022-09-09T02:12:29;5.53;;;2.78;;
74233;SDS011;62591;55.764;37.718;2022-09-09T02:15:03;3.92;;;2.10;;
74233;SDS011;62591;55.764;37.718;2022-09-09T02:17:46;5.72;;;2.53;;
74233;SDS011;62591;55.764;37.718;2022-09-09T02:22:54;10.20;;;2.58;;
74233;SDS011;62591;55.764;37.718;2022-09-09T02:25:26;4.40;;;3.30;;
74233;SDS011;62591;55.764;37.718;2022-09-09T02:28:06;4.05;;;2.17;;
74233;SDS011;62591;55.764;37.718;2022-09-09T02:30:38;4.15;;;2.10;;
74233;SDS011;62591;55.764;37.718;2022-09-09T02:33:09;4.13;;;2.17;;
74233;SDS011;62591;55.764;37.718;2022-09-09T02:35:48;4.15;;;2.42;;
74233;SDS011;62591;55.764;37.718;2022-09-09T02:38:21;3.88;;;2.33;;
74233;SDS011;62591;55.764;37.718;2022-09-09T02:41:02;6.95;;;2.40;;
74233;SDS011;62591;55.764;37.718;2022-09-09T02:43:31;3.88;;;2.38;;
74233;SDS011;62591;55.764;37.718;2022-09-09T02:46:08;9.05;;;2.17;;
74233;SDS011;62591;55.764;37.718;2022-09-09T02:48:51;4.18;;;2.20;;
74233;SDS011;62591;55.764;37.718;2022-09-09T02:51:31;6.38;;;2.65;;
74233;SDS011;62591;55.764;37.718;2022-09-09T02:54:10;5.13;;;2.55;;
74233;SDS011;62591;55.764;37.718;2022-09-09T02:56:49;6.43;;;2.42;;
74233;SDS011;62591;55.764;37.718;2022-09-09T02:59:26;7.50;;;2.40;;
74233;SDS011;62591;55.764;37.718;2022-09-09T03:01:57;5.70;;;2.65;;
74233;SDS011;62591;55.764;37.718;2022-09-09T03:04:27;5.03;;;2.20;;
74233;SDS011;62591;55.764;37.718;2022-09-09T03:06:56;10.25;;;3.22;;
74233;SDS011;62591;55.764;37.718;2022-09-09T03:09:25;3.90;;;2.38;;
74233;SDS011;62591;55.764;37.718;2022-09-09T03:11:55;4.75;;;2.85;;
74233;SDS011;62591;55.764;37.718;2022-09-09T03:14:25;5.65;;;2.40;;
74233;SDS011;62591;55.764;37.718;2022-09-09T03:16:54;6.55;;;2.88;;
74233;SDS011;62591;55.764;37.718;2022-09-09T03:19:25;4.80;;;2.70;;
74233;SDS011;62591;55.764;37.718;2022-09-09T03:21:54;6.13;;;3.03;;
74233;SDS011;62591;55.764;37.718;2022-09-09T03:24:22;6.57;;;2.58;;
74233;SDS011;62591;55.764;37.718;2022-09-09T03:26:51;5.95;;;2.90;;
74233;SDS011;62591;55.764;37.718;2022-09-09T03:29:20;7.10;;;3.80;;
74233;SDS011;62591;55.764;37.718;2022-09-09T03:31:51;4.97;;;3.28;;
74233;SDS011;62591;55.764;37.718;2022-09-09T03:34:20;4.95;;;2.90;;
74233;SDS011;62591;55.764;37.718;2022-09-09T03:36:50;4.57;;;2.67;;
74233;SDS011;62591;55.764;37.718;2022-09-09T03:39:19;4.63;;;2.83;;
74233;SDS011;62591;55.764;37.718;2022-09-09T03:41:47;5.30;;;2.60;;
74233;SDS011;62591;55.764;37.718;2022-09-09T03:44:16;4.43;;;2.65;;
74233;SDS011;62591;55.764;37.718;2022-09-09T03:46:45;4.50;;;2.80;;
74233;SDS011;62591;55.764;37.718;2022-09-09T03:49:15;7.00;;;3.17;;
74233;SDS011;62591;55.764;37.718;2022-09-09T03:51:43;4.18;;;2.50;;
74233;SDS011;62591;55.764;37.718;2022-09-09T03:54:14;5.10;;;2.95;;
74233;SDS011;62591;55.764;37.718;2022-09-09T03:56:43;6.95;;;2.92;;
74233;SDS011;62591;55.764;37.718;2022-09-09T03:59:12;4.85;;;2.58;;
74233;SDS011;62591;55.764;37.718;2022-09-09T04:01:41;4.97;;;2.75;;
74233;SDS011;62591;55.764;37.718;2022-09-09T04:04:12;7.13;;;2.70;;
74233;SDS011;62591;55.764;37.718;2022-09-09T04:06:41;5.13;;;2.60;;
74233;SDS011;62591;55.764;37.718;2022-09-09T04:09:09;5.05;;;2.60;;
74233;SDS011;62591;55.764;37.718;2022-09-09T04:11:39;6.20;;;3.03;;
74233;SDS011;62591;55.764;37.718;2022-09-09T04:14:07;5.85;;;2.70;;
74233;SDS011;62591;55.764;37.718;2022-09-09T04:16:36;4.18;;;2.45;;
74233;SDS011;62591;55.764;37.718;2022-09-09T04:19:04;6.68;;;2.50;;
74233;SDS011;62591;55.764;37.718;2022-09-09T04:21:35;4.95;;;2.75;;
74233;SDS011;62591;55.764;37.718;2022-09-09T04:24:03;4.05;;;2.78;;
74233;SDS011;62591;55.764;37.718;2022-09-09T04:26:32;5.57;;;3.15;;
74233;SDS011;62591;55.764;37.718;2022-09-09T04:29:02;5.75;;;2.67;;
74233;SDS011;62591;55.764;37.718;2022-09-09T04:31:31;5.43;;;2.75;;
74233;SDS011;62591;55.764;37.718;2022-09-09T04:34:00;5.07;;;2.58;;
74233;SDS011;62591;55.764;37.718;2022-09-09T04:36:32;5.57;;;3.10;;
74233;SDS011;62591;55.764;37.718;2022-09-09T04:39:03;4.68;;;2.45;;
74233;SDS011;62591;55.764;37.718;2022-09-09T04:41:32;5.30;;;2.80;;
74233;SDS011;62591;55.764;37.718;2022-09-09T04:44:09;5.07;;;2.67;;
74233;SDS011;62591;55.764;37.718;2022-09-09T04:46:38;3.88;;;2.53;;
74233;SDS011;62591;55.764;37.718;2022-09-09T04:49:09;5.93;;;2.65;;
74233;SDS011;62591;55.764;37.718;2022-09-09T04:51:42;6.85;;;2.65;;
74233;SDS011;62591;55.764;37.718;2022-09-09T04:54:12;5.05;;;2.45;;
74233;SDS011;62591;55.764;37.718;2022-09-09T04:56:42;4.78;;;2.20;;
74233;SDS011;62591;55.764;37.718;2022-09-09T04:59:12;5.45;;;2.30;;
74233;SDS011;62591;55.764;37.718;2022-09-09T05:01:45;4.78;;;2.33;;
74233;SDS011;62591;55.764;37.718;2022-09-09T05:04:17;3.30;;;1.92;;
74233;SDS011;62591;55.764;37.718;2022-09-09T05:06:46;4.78;;;2.20;;
74233;SDS011;62591;55.764;37.718;2022-09-09T05:09:15;4.15;;;2.03;;
74233;SDS011;62591;55.764;37.718;2022-09-09T05:11:45;5.13;;;2.33;;
74233;SDS011;62591;55.764;37.718;2022-09-09T05:14:22;3.80;;;2.10;;
74233;SDS011;62591;55.764;37.718;2022-09-09T05:16:51;4.90;;;2.67;;
74233;SDS011;62591;55.764;37.718;2022-09-09T05:19:21;3.58;;;1.92;;
74233;SDS011;62591;55.764;37.718;2022-09-09T05:21:51;5.10;;;2.20;;
74233;SDS011;62591;55.764;37.718;2022-09-09T05:24:25;4.38;;;2.38;;
74233;SDS011;62591;55.764;37.718;2022-09-09T05:26:56;4.18;;;2.70;;
74233;SDS011;62591;55.764;37.718;2022-09-09T05:29:28;5.00;;;2.17;;
74233;SDS011;62591;55.764;37.718;2022-09-09T05:31:56;2.40;;;1.60;;
74233;SDS011;62591;55.764;37.718;2022-09-09T05:34:25;2.80;;;1.60;;
74233;SDS011;62591;55.764;37.718;2022-09-09T05:36:53;3.55;;;1.67;;
74233;SDS011;62591;55.764;37.718;2022-09-09T05:39:23;3.25;;;1.83;;
74233;SDS011;62591;55.764;37.718;2022-09-09T05:41:52;3.03;;;1.70;;
74233;SDS011;62591;55.764;37.718;2022-09-09T05:44:21;5.35;;;1.75;;
74233;SDS011;62591;55.764;37.718;2022-09-09T05:46:52;4.00;;;1.60;;
74233;SDS011;62591;55.764;37.718;2022-09-09T05:49:21;7.50;;;1.63;;
74233;SDS011;62591;55.764;37.718;2022-09-09T05:51:49;4.38;;;1.60;;
74233;SDS011;62591;55.764;37.718;2022-09-09T05:54:22;3.72;;;1.80;;
74233;SDS011;62591;55.764;37.718;2022-09-09T05:56:52;3.05;;;1.80;;
74233;SDS011;62591;55.764;37.718;2022-09-09T05:59:20;7.72;;;1.52;;
74233;SDS011;62591;55.764;37.718;2022-09-09T06:01:54;4.43;;;1.45;;
74233;SDS011;62591;55.764;37.718;2022-09-09T06:04:28;3.83;;;1.58;;
74233;SDS011;62591;55.764;37.718;2022-09-09T06:06:59;3.35;;;1.77;;
74233;SDS011;62591;55.764;37.718;2022-09-09T06:09:28;3.65;;;1.60;;
74233;SDS011;62591;55.764;37.718;2022-09-09T06:11:57;6.32;;;1.50;;
74233;SDS011;62591;55.764;37.718;2022-09-09T06:14:26;5.43;;;1.85;;
74233;SDS011;62591;55.764;37.718;2022-09-09T06:16:59;4.85;;;1.80;;
74233;SDS011;62591;55.764;37.718;2022-09-09T06:19:30;3.10;;;1.42;;
74233;SDS011;62591;55.764;37.718;2022-09-09T06:21:59;5.00;;;1.00;;
74233;SDS011;62591;55.764;37.718;2022-09-09T06:24:30;3.55;;;1.00;;
74233;SDS011;62591;55.764;37.718;2022-09-09T06:27:01;3.33;;;1.20;;
74233;SDS011;62591;55.764;37.718;2022-09-09T06:29:33;2.42;;;1.20;;
74233;SDS011;62591;55.764;37.718;2022-09-09T06:32:03;3.88;;;1.42;;
74233;SDS011;62591;55.764;37.718;2022-09-09T06:34:32;5.10;;;1.98;;
74233;SDS011;62591;55.764;37.718;2022-09-09T06:37:01;3.92;;;1.30;;
74233;SDS011;62591;55.764;37.718;2022-09-09T06:39:37;2.65;;;1.05;;
74233;SDS011;62591;55.764;37.718;2022-09-09T06:42:06;3.05;;;1.10;;
74233;SDS011;62591;55.764;37.718;2022-09-09T06:44:48;2.60;;;1.10;;
74233;SDS011;62591;55.764;37.718;2022-09-09T06:47:44;3.10;;;1.30;;
74233;SDS011;62591;55.764;37.718;2022-09-09T06:50:13;2.00;;;0.98;;
74233;SDS011;62591;55.764;37.718;2022-09-09T06:52:45;3.35;;;1.40;;
74233;SDS011;62591;55.764;37.718;2022-09-09T06:55:14;3.75;;;1.20;;
74233;SDS011;62591;55.764;37.718;2022-09-09T06:57:44;2.13;;;1.10;;
74233;SDS011;62591;55.764;37.718;2022-09-09T07:00:20;3.83;;;1.13;;
74233;SDS011;62591;55.764;37.718;2022-09-09T07:02:51;2.65;;;1.02;;
74233;SDS011;62591;55.764;37.718;2022-09-09T07:05:21;2.85;;;1.10;;
74233;SDS011;62591;55.764;37.718;2022-09-09T07:07:51;3.50;;;1.20;;
74233;SDS011;62591;55.764;37.718;2022-09-09T07:10:20;2.38;;;1.02;;
74233;SDS011;62591;55.764;37.718;2022-09-09T07:12:50;3.72;;;1.10;;
74233;SDS011;62591;55.764;37.718;2022-09-09T07:15:21;3.45;;;1.65;;
74233;SDS011;62591;55.764;37.718;2022-09-09T07:17:54;2.88;;;1.25;;
74233;SDS011;62591;55.764;37.718;2022-09-09T07:20:23;2.25;;;0.82;;
74233;SDS011;62591;55.764;37.718;2022-09-09T07:22:54;3.25;;;0.90;;
74233;SDS011;62591;55.764;37.718;2022-09-09T07:25:24;1.65;;;0.70;;
74233;SDS011;62591;55.764;37.718;2022-09-09T07:27:57;2.83;;;0.70;;
74233;SDS011;62591;55.764;37.718;2022-09-09T07:30:25;2.00;;;0.93;;
74233;SDS011;62591;55.764;37.718;2022-09-09T07:32:56;4.93;;;1.05;;
74233;SDS011;62591;55.764;37.718;2022-09-09T07:35:26;2.22;;;0.75;;
74233;SDS011;62591;55.764;37.718;2022-09-09T07:37:55;3.25;;;1.20;;
74233;SDS011;62591;55.764;37.718;2022-09-09T07:40:25;2.38;;;1.38;;
74233;SDS011;62591;55.764;37.718;2022-09-09T07:42:53;4.35;;;1.27;;
74233;SDS011;62591;55.764;37.718;2022-09-09T07:45:22;2.50;;;1.08;;
74233;SDS011;62591;55.764;37.718;2022-09-09T07:47:51;3.60;;;1.25;;
74233;SDS011;62591;55.764;37.718;2022-09-09T07:50:21;8.18;;;1.58;;
74233;SDS011;62591;55.764;37.718;2022-09-09T07:52:51;2.00;;;0.70;;
74233;SDS011;62591;55.764;37.718;2022-09-09T07:55:21;1.88;;;0.73;;
74233;SDS011;62591;55.764;37.718;2022-09-09T07:57:52;2.28;;;1.02;;
74233;SDS011;62591;55.764;37.718;2022-09-09T08:00:23;1.80;;;0.90;;
74233;SDS011;62591;55.764;37.718;2022-09-09T08:02:55;2.42;;;0.90;;
74233;SDS011;62591;55.764;37.718;2022-09-09T08:05:25;2.65;;;0.90;;
74233;SDS011;62591;55.764;37.718;2022-09-09T08:07:54;4.40;;;1.50;;
74233;SDS011;62591;55.764;37.718;2022-09-09T08:10:23;2.70;;;1.50;;
74233;SDS011;62591;55.764;37.718;2022-09-09T08:12:53;2.20;;;0.70;;
74233;SDS011;62591;55.764;37.718;2022-09-09T08:15:42;1.75;;;0.90;;
74233;SDS011;62591;55.764;37.718;2022-09-09T08:18:11;3.28;;;0.70;;
74233;SDS011;62591;55.764;37.718;2022-09-09T08:20:41;1.80;;;0.70;;
74233;SDS011;62591;55.764;37.718;2022-09-09T08:23:09;2.63;;;0.77;;
74233;SDS011;62591;55.764;37.718;2022-09-09T08:25:38;2.60;;;0.90;;
74233;SDS011;62591;55.764;37.718;2022-09-09T08:28:07;1.58;;;0.98;;
74233;SDS011;62591;55.764;37.718;2022-09-09T08:30:38;2.20;;;1.35;;
74233;SDS011;62591;55.764;37.718;2022-09-09T08:33:06;2.97;;;0.98;;
74233;SDS011;62591;55.764;37.718;2022-09-09T08:35:37;4.45;;;0.93;;
74233;SDS011;62591;55.764;37.718;2022-09-09T08:38:07;1.88;;;1.00;;
74233;SDS011;62591;55.764;37.718;2022-09-09T08:40:38;2.42;;;1.00;;
74233;SDS011;62591;55.764;37.718;2022-09-09T08:43:18;1.95;;;0.80;;
74233;SDS011;62591;55.764;37.718;2022-09-09T08:45:55;1.58;;;0.85;;
74233;SDS011;62591;55.764;37.718;2022-09-09T08:48:36;2.25;;;1.05;;
74233;SDS011;62591;55.764;37.718;2022-09-09T08:51:12;3.38;;;1.20;;
74233;SDS011;62591;55.764;37.718;2022-09-09T08:53:46;1.95;;;0.85;;
74233;SDS011;62591;55.764;37.718;2022-09-09T08:56:22;1.83;;;0.80;;
74233;SDS011;62591;55.764;37.718;2022-09-09T08:58:56;1.90;;;0.77;;
74233;SDS011;62591;55.764;37.718;2022-09-09T09:01:45;6.22;;;1.40;;
74233;SDS011;62591;55.764;37.718;2022-09-09T09:04:33;2.38;;;1.23;;
74233;SDS011;62591;55.764;37.718;2022-09-09T09:07:15;2.20;;;1.23;;
74233;SDS011;62591;55.764;37.718;2022-09-09T09:10:02;5.05;;;0.98;;
74233;SDS011;62591;55.764;37.718;2022-09-09T09:12:59;1.42;;;0.60;;
74233;SDS011;62591;55.764;37.718;2022-09-09T09:15:31;1.90;;;0.85;;
74233;SDS011;62591;55.764;37.718;2022-09-09T09:18:05;1.40;;;0.60;;
74233;SDS011;62591;55.764;37.718;2022-09-09T09:20:37;3.70;;;0.90;;
74233;SDS011;62591;55.764;37.718;2022-09-09T09:23:16;2.78;;;0.80;;
74233;SDS011;62591;55.764;37.718;2022-09-09T09:25:55;2.95;;;0.85;;
74233;SDS011;62591;55.764;37.718;2022-09-09T09:28:29;3.00;;;0.70;;
74233;SDS011;62591;55.764;37.718;2022-09-09T09:31:09;3.20;;;0.90;;
74233;SDS011;62591;55.764;37.718;2022-09-09T09:33:46;1.50;;;0.70;;
74233;SDS011;62591;55.764;37.718;2022-09-09T09:36:19;4.40;;;1.48;;
74233;SDS011;62591;55.764;37.718;2022-09-09T09:38:53;1.77;;;0.75;;
74233;SDS011;62591;55.764;37.718;2022-09-09T09:41:46;3.67;;;0.77;;
74233;SDS011;62591;55.764;37.718;2022-09-09T09:44:22;2.42;;;0.85;;
74233;SDS011;62591;55.764;37.718;2022-09-09T09:46:53;1.70;;;0.80;;
74233;SDS011;62591;55.764;37.718;2022-09-09T09:49:34;1.00;;;0.50;;
74233;SDS011;62591;55.764;37.718;2022-09-09T09:52:04;1.83;;;0.70;;
74233;SDS011;62591;55.764;37.718;2022-09-09T09:54:37;1.27;;;0.60;;
74233;SDS011;62591;55.764;37.718;2022-09-09T09:57:11;1.60;;;0.70;;
74233;SDS011;62591;55.764;37.718;2022-09-09T09:59:43;2.33;;;0.70;;
74233;SDS011;62591;55.764;37.718;2022-09-09T10:02:21;1.38;;;0.77;;
74233;SDS011;62591;55.764;37.718;2022-09-09T10:05:01;1.80;;;0.77;;
74233;SDS011;62591;55.764;37.718;2022-09-09T10:07:32;3.63;;;0.90;;
74233;SDS011;62591;55.764;37.718;2022-09-09T10:10:01;2.80;;;1.00;;
74233;SDS011;62591;55.764;37.718;2022-09-09T10:12:36;2.72;;;1.30;;
74233;SDS011;62591;55.764;37.718;2022-09-09T10:15:22;1.40;;;0.80;;
74233;SDS011;62591;55.764;37.718;2022-09-09T10:18:05;1.90;;;1.10;;
74233;SDS011;62591;55.764;37.718;2022-09-09T10:20:45;2.00;;;0.80;;
74233;SDS011;62591;55.764;37.718;2022-09-09T10:23:27;1.70;;;0.85;;
74233;SDS011;62591;55.764;37.718;2022-09-09T10:26:14;2.10;;;0.60;;
74233;SDS011;62591;55.764;37.718;2022-09-09T10:28:58;1.40;;;0.77;;
74233;SDS011;62591;55.764;37.718;2022-09-09T10:31:40;2.67;;;0.90;;
74233;SDS011;62591;55.764;37.718;2022-09-09T10:34:21;3.33;;;0.70;;
74233;SDS011;62591;55.764;37.718;2022-09-09T10:37:06;1.63;;;0.70;;
74233;SDS011;62591;55.764;37.718;2022-09-09T10:39:49;1.33;;;0.60;;
74233;SDS011;62591;55.764;37.718;2022-09-09T10:42:30;1.40;;;0.63;;
74233;SDS011;62591;55.764;37.718;2022-09-09T10:45:03;1.65;;;0.60;;
74233;SDS011;62591;55.764;37.718;2022-09-09T10:50:40;1.60;;;0.70;;
74233;SDS011;62591;55.764;37.718;2022-09-09T10:53:35;2.30;;;0.70;;
74233;SDS011;62591;55.764;37.718;2022-09-09T10:56:09;1.85;;;0.68;;
74233;SDS011;62591;55.764;37.718;2022-09-09T10:58:41;2.00;;;0.90;;
74233;SDS011;62591;55.764;37.718;2022-09-09T11:01:18;1.30;;;0.60;;
74233;SDS011;62591;55.764;37.718;2022-09-09T11:03:57;2.42;;;0.70;;
74233;SDS011;62591;55.764;37.718;2022-09-09T11:06:32;2.05;;;0.80;;
74233;SDS011;62591;55.764;37.718;2022-09-09T11:09:05;2.20;;;0.60;;
74233;SDS011;62591;55.764;37.718;2022-09-09T11:11:39;1.60;;;0.70;;
74233;SDS011;62591;55.764;37.718;2022-09-09T11:14:14;3.17;;;1.60;;
74233;SDS011;62591;55.764;37.718;2022-09-09T11:16:49;1.63;;;0.73;;
74233;SDS011;62591;55.764;37.718;2022-09-09T11:19:22;1.50;;;0.63;;
74233;SDS011;62591;55.764;37.718;2022-09-09T11:21:57;1.10;;;0.50;;
74233;SDS011;62591;55.764;37.718;2022-09-09T11:24:30;2.25;;;0.70;;
74233;SDS011;62591;55.764;37.718;2022-09-09T11:27:03;1.40;;;0.63;;
74233;SDS011;62591;55.764;37.718;2022-09-09T11:30:02;1.73;;;0.57;;
74233;SDS011;62591;55.764;37.718;2022-09-09T11:33:02;2.38;;;0.70;;
74233;SDS011;62591;55.764;37.718;2022-09-09T11:35:56;1.75;;;0.80;;
74233;SDS011;62591;55.764;37.718;2022-09-09T11:38:36;4.35;;;0.60;;
74233;SDS011;62591;55.764;37.718;2022-09-09T11:41:10;2.67;;;0.63;;
74233;SDS011;62591;55.764;37.718;2022-09-09T11:43:47;3.63;;;0.80;;
74233;SDS011;62591;55.764;37.718;2022-09-09T11:46:19;1.20;;;0.70;;
74233;SDS011;62591;55.764;37.718;2022-09-09T11:48:59;3.20;;;1.08;;
74233;SDS011;62591;55.764;37.718;2022-09-09T11:51:30;1.80;;;0.90;;
74233;SDS011;62591;55.764;37.718;2022-09-09T11:54:29;1.73;;;0.90;;
74233;SDS011;62591;55.764;37.718;2022-09-09T11:56:57;1.98;;;1.05;;
74233;SDS011;62591;55.764;37.718;2022-09-09T11:59:27;3.28;;;1.13;;
74233;SDS011;62591;55.764;37.718;2022-09-09T12:01:58;1.73;;;0.82;;
74233;SDS011;62591;55.764;37.718;2022-09-09T12:04:31;1.80;;;0.80;;
74233;SDS011;62591;55.764;37.718;2022-09-09T12:07:04;1.70;;;0.70;;
74233;SDS011;62591;55.764;37.718;2022-09-09T12:09:57;2.22;;;0.82;;
74233;SDS011;62591;55.764;37.718;2022-09-09T12:12:31;2.42;;;0.77;;
74233;SDS011;62591;55.764;37.718;2022-09-09T12:15:19;4.13;;;0.82;;
74233;SDS011;62591;55.764;37.718;2022-09-09T12:17:50;3.72;;;0.80;;
74233;SDS011;62591;55.764;37.718;2022-09-09T12:20:30;2.10;;;1.08;;
74233;SDS011;62591;55.764;37.718;2022-09-09T12:26:16;4.53;;;1.50;;
74233;SDS011;62591;55.764;37.718;2022-09-09T12:29:00;2.22;;;0.88;;
74233;SDS011;62591;55.764;37.718;2022-09-09T12:34:13;3.63;;;1.15;;
74233;SDS011;62591;55.764;37.718;2022-09-09T12:36:50;3.63;;;0.90;;
74233;SDS011;62591;55.764;37.718;2022-09-09T12:39:31;2.55;;;0.80;;
74233;SDS011;62591;55.764;37.718;2022-09-09T12:42:03;3.95;;;0.90;;
74233;SDS011;62591;55.764;37.718;2022-09-09T12:44:32;4.00;;;1.10;;
74233;SDS011;62591;55.764;37.718;2022-09-09T12:47:01;3.80;;;1.48;;
74233;SDS011;62591;55.764;37.718;2022-09-09T12:49:32;2.53;;;1.30;;
74233;SDS011;62591;55.764;37.718;2022-09-09T12:52:06;2.92;;;1.08;;
74233;SDS011;62591;55.764;37.718;2022-09-09T12:54:38;4.15;;;1.17;;
74233;SDS011;62591;55.764;37.718;2022-09-09T12:57:14;2.53;;;1.55;;
74233;SDS011;62591;55.764;37.718;2022-09-09T12:59:43;3.50;;;1.40;;
74233;SDS011;62591;55.764;37.718;2022-09-09T13:02:20;3.38;;;1.25;;
74233;SDS011;62591;55.764;37.718;2022-09-09T13:04:50;3.85;;;1.30;;
74233;SDS011;62591;55.764;37.718;2022-09-09T13:07:21;2.67;;;1.10;;
74233;SDS011;62591;55.764;37.718;2022-09-09T13:09:51;4.03;;;1.73;;
74233;SDS011;62591;55.764;37.718;2022-09-09T13:12:20;5.07;;;1.80;;
74233;SDS011;62591;55.764;37.718;2022-09-09T13:14:50;2.05;;;1.02;;
74233;SDS011;62591;55.764;37.718;2022-09-09T13:17:21;3.78;;;1.40;;
74233;SDS011;62591;55.764;37.718;2022-09-09T13:19:52;1.80;;;1.02;;
74233;SDS011;62591;55.764;37.718;2022-09-09T13:22:26;2.50;;;1.20;;
74233;SDS011;62591;55.764;37.718;2022-09-09T13:25:03;3.88;;;1.30;;
74233;SDS011;62591;55.764;37.718;2022-09-09T13:27:34;6.13;;;0.98;;
74233;SDS011;62591;55.764;37.718;2022-09-09T13:30:22;5.80;;;1.02;;
74233;SDS011;62591;55.764;37.718;2022-09-09T13:32:59;4.32;;;1.30;;
74233;SDS011;62591;55.764;37.718;2022-09-09T13:35:30;3.60;;;1.15;;
74233;SDS011;62591;55.764;37.718;2022-09-09T13:38:12;2.58;;;1.50;;
74233;SDS011;62591;55.764;37.718;2022-09-09T13:40:51;2.80;;;1.35;;
74233;SDS011;62591;55.764;37.718;2022-09-09T13:43:21;5.30;;;1.50;;
74233;SDS011;62591;55.764;37.718;2022-09-09T13:45:55;3.85;;;0.90;;
74233;SDS011;62591;55.764;37.718;2022-09-09T13:48:25;4.78;;;1.33;;
74233;SDS011;62591;55.764;37.718;2022-09-09T13:50:58;2.30;;;1.02;;
74233;SDS011;62591;55.764;37.718;2022-09-09T13:53:31;3.22;;;1.08;;
74233;SDS011;62591;55.764;37.718;2022-09-09T13:55:59;3.25;;;1.60;;
74233;SDS011;62591;55.764;37.718;2022-09-09T13:58:28;1.98;;;0.82;;
74233;SDS011;62591;55.764;37.718;2022-09-09T14:00:56;2.00;;;1.10;;
74233;SDS011;62591;55.764;37.718;2022-09-09T14:03:25;2.88;;;1.13;;
74233;SDS011;62591;55.764;37.718;2022-09-09T14:05:53;4.47;;;1.05;;
74233;SDS011;62591;55.764;37.718;2022-09-09T14:08:23;1.98;;;0.85;;
74233;SDS011;62591;55.764;37.718;2022-09-09T14:10:54;3.33;;;1.00;;
74233;SDS011;62591;55.764;37.718;2022-09-09T14:13:24;3.60;;;1.05;;
74233;SDS011;62591;55.764;37.718;2022-09-09T14:15:53;2.88;;;1.00;;
74233;SDS011;62591;55.764;37.718;2022-09-09T14:18:22;1.85;;;0.95;;
74233;SDS011;62591;55.764;37.718;2022-09-09T14:20:52;7.47;;;1.50;;
74233;SDS011;62591;55.764;37.718;2022-09-09T14:23:20;3.92;;;1.42;;
74233;SDS011;62591;55.764;37.718;2022-09-09T14:25:50;1.55;;;0.90;;
74233;SDS011;62591;55.764;37.718;2022-09-09T14:28:20;2.22;;;1.20;;
74233;SDS011;62591;55.764;37.718;2022-09-09T14:31:09;2.70;;;1.10;;
74233;SDS011;62591;55.764;37.718;2022-09-09T14:33:37;3.67;;;1.23;;
74233;SDS011;62591;55.764;37.718;2022-09-09T14:36:06;2.78;;;1.23;;
74233;SDS011;62591;55.764;37.718;2022-09-09T14:38:35;2.80;;;1.05;;
74233;SDS011;62591;55.764;37.718;2022-09-09T14:41:06;4.07;;;1.30;;
74233;SDS011;62591;55.764;37.718;2022-09-09T14:43:38;4.05;;;1.33;;
74233;SDS011;62591;55.764;37.718;2022-09-09T14:46:07;3.42;;;1.30;;
74233;SDS011;62591;55.764;37.718;2022-09-09T14:48:37;2.88;;;1.27;;
74233;SDS011;62591;55.764;37.718;2022-09-09T14:51:10;3.58;;;1.48;;
74233;SDS011;62591;55.764;37.718;2022-09-09T14:53:40;3.78;;;1.30;;
74233;SDS011;62591;55.764;37.718;2022-09-09T14:56:10;3.25;;;1.20;;
74233;SDS011;62591;55.764;37.718;2022-09-09T14:58:43;4.10;;;1.10;;
74233;SDS011;62591;55.764;37.718;2022-09-09T15:01:16;2.33;;;1.23;;
74233;SDS011;62591;55.764;37.718;2022-09-09T15:03:48;2.95;;;1.30;;
74233;SDS011;62591;55.764;37.718;2022-09-09T15:06:19;4.95;;;1.17;;
74233;SDS011;62591;55.764;37.718;2022-09-09T15:08:50;2.58;;;1.05;;
74233;SDS011;62591;55.764;37.718;2022-09-09T15:11:20;2.38;;;1.08;;
74233;SDS011;62591;55.764;37.718;2022-09-09T15:13:53;5.13;;;1.20;;
74233;SDS011;62591;55.764;37.718;2022-09-09T15:16:23;2.72;;;1.17;;
74233;SDS011;62591;55.764;37.718;2022-09-09T15:18:54;2.92;;;1.30;;
74233;SDS011;62591;55.764;37.718;2022-09-09T15:21:25;3.95;;;1.10;;
74233;SDS011;62591;55.764;37.718;2022-09-09T15:23:55;4.93;;;1.60;;
74233;SDS011;62591;55.764;37.718;2022-09-09T15:26:24;4.00;;;1.25;;
74233;SDS011;62591;55.764;37.718;2022-09-09T15:28:55;3.83;;;1.42;;